Sea Cloud II — 9HUE6 — position and weather

sailwx.info

Track history (hours):
 
Tides and Currents Weather Stations Pressure Air Temp Water Temp Dewpoint Dewpoint Depression Visibility Wind Speed Wind Dir Waves Ship Positions

Sea Cloud II

Ship's website: http://www.seacloud.com/en/the-ships/sea-cloud-ii.html

Last reported at 2014-Oct-22 17:28 UTC. Time now 2014-Oct-24 13:38 UTC.
Position N 38°26' E 015°11'.

Length 117 m; draft 5.8 m.

Type: Passenger vessel. MMSI: 248953000.

Date/timePositionNaut miles runAvg speedWind from/ knotsBaromVisibWave heightAir tempDewpointWater temp
2014-Oct-22 17:28N 38°26' E 015°11'65 3.0
2014-Oct-21 19:20N 38°11' E 013°50'2 2.6
2014-Oct-21 18:33N 38°10' E 013°48'4 2.9
2014-Oct-21 17:10N 38°09' E 013°43'2 3.9
2014-Oct-21 16:33N 38°08' E 013°40'2 1.6
2014-Oct-21 15:29N 38°08' E 013°37'1 1.3
2014-Oct-21 14:33N 38°09' E 013°36'2 1.9
2014-Oct-21 13:33N 38°09' E 013°34'2 1.9
2014-Oct-21 12:33N 38°09' E 013°31'8 7.6
2014-Oct-21 11:33N 38°08' E 013°22'0 0.0
2014-Oct-21 10:31N 38°08' E 013°22'0 0.0
2014-Oct-21 09:31N 38°08' E 013°22'0 0.0
2014-Oct-21 08:31N 38°08' E 013°22'0 0.0
2014-Oct-21 07:31N 38°08' E 013°22'0 0.0
2014-Oct-21 06:31N 38°08' E 013°22'1 1.3
2014-Oct-21 05:33N 38°08' E 013°23'5 5.3
2014-Oct-21 04:33N 38°13' E 013°24'6 6.0
2014-Oct-21 03:33N 38°18' E 013°19'7 6.7
2014-Oct-21 02:33N 38°17' E 013°11'7 7.1
2014-Oct-21 01:33N 38°16' E 013°02'8 7.6
2014-Oct-21 00:33N 38°15' E 012°52'9 7.6
2014-Oct-20 23:26N 38°14' E 012°42'7 7.4
2014-Oct-20 22:32N 38°13' E 012°33'106 2.8
2014-Oct-19 08:14N 36°40' E 013°37'3 4.0
2014-Oct-19 07:33N 36°40' E 013°41'20 4.0
2014-Oct-19 02:27N 36°27' E 014°00'13 4.5
2014-Oct-18 23:33N 36°19' E 014°13'4 4.3
2014-Oct-18 22:33N 36°16' E 014°17'4 4.3
2014-Oct-18 21:33N 36°13' E 014°20'5 4.3
2014-Oct-18 20:26N 36°09' E 014°25'3 3.6
2014-Oct-18 19:32N 36°07' E 014°28'2 2.5
2014-Oct-18 18:33N 36°05' E 014°30'2 1.9
2014-Oct-18 17:32N 36°03' E 014°31'7 6.7
2014-Oct-18 16:33N 35°57' E 014°33'4 1.2
2014-Oct-18 13:12N 35°54' E 014°31'0 0.0
2014-Oct-18 12:18N 35°54' E 014°31'0 0.0
2014-Oct-18 09:30N 35°54' E 014°31'0 0.0
2014-Oct-18 05:33N 35°54' E 014°31'6 5.7
2014-Oct-18 04:33N 35°57' E 014°36'5 5.5
2014-Oct-18 03:33N 36°01' E 014°41'5 4.3
2014-Oct-18 02:30N 36°04' E 014°45'5 5.0
2014-Oct-18 01:30N 36°07' E 014°50'4 3.9
2014-Oct-18 00:33N 36°09' E 014°54'4 3.5
2014-Oct-17 23:29N 36°11' E 014°58'3 3.4
2014-Oct-17 22:33N 36°13' E 015°01'3 3.5
2014-Oct-17 21:33N 36°15' E 015°05'42 0.9
2014-Oct-15 21:09N 36°42' E 014°26'711.6
2014-Oct-15 20:33N 36°46' E 014°19'1212.1
2014-Oct-15 19:33N 36°53' E 014°06'1212.3
2014-Oct-15 18:33N 36°60' E 013°53'19 1.5
2014-Oct-15 05:31N 36°60' E 013°29'68 1.8
2014-Oct-13 16:23N 38°08' E 013°22'0 0.0
2014-Oct-13 15:32N 38°08' E 013°22'0 0.0
2014-Oct-13 14:32N 38°08' E 013°22'0 0.0
2014-Oct-13 13:31N 38°08' E 013°22'0 0.0
2014-Oct-13 12:31N 38°08' E 013°22'0 0.0
2014-Oct-13 11:31N 38°08' E 013°22'0 0.0
2014-Oct-13 10:31N 38°08' E 013°22'0 0.0
2014-Oct-13 09:31N 38°08' E 013°22'0 0.0
2014-Oct-13 08:31N 38°08' E 013°22'0 0.0
2014-Oct-13 07:31N 38°08' E 013°22'0 0.0
2014-Oct-13 06:31N 38°08' E 013°22'1 1.1
2014-Oct-13 05:33N 38°07' E 013°23'6 5.5
2014-Oct-13 04:33N 38°11' E 013°29'6 6.2
2014-Oct-13 03:33N 38°14' E 013°35'7 7.0
2014-Oct-13 02:33N 38°16' E 013°44'7 7.1
2014-Oct-13 01:33N 38°18' E 013°53'6 5.9
2014-Oct-13 00:33N 38°19' E 014°00'4 4.4
2014-Oct-12 23:33N 38°19' E 014°06'5 4.6
2014-Oct-12 22:32N 38°20' E 014°11'14 4.3
2014-Oct-12 19:13N 38°25' E 014°28'2 3.0
2014-Oct-12 18:33N 38°26' E 014°30'  
Track history (hours):
 
Tides and Currents Weather Stations Pressure Air Temp Water Temp Dewpoint Dewpoint Depression Visibility Wind Speed Wind Dir Waves Ship Positions

Sea Cloud II

Ship's website: http://www.seacloud.com/en/the-ships/sea-cloud-ii.html

Last reported at 2014-Oct-22 17:28 UTC. Time now 2014-Oct-24 13:38 UTC.
Position N 38°26' E 015°11'.

Length 117 m; draft 5.8 m.

Type: Passenger vessel. MMSI: 248953000.

Date/timePositionNaut miles runAvg speedWind from/ knotsBaromVisibWave heightAir tempDewpointWater temp
2014-Oct-22 17:28N 38°26' E 015°11'65 3.0
2014-Oct-21 19:20N 38°11' E 013°50'2 2.6
2014-Oct-21 18:33N 38°10' E 013°48'4 2.9
2014-Oct-21 17:10N 38°09' E 013°43'2 3.9
2014-Oct-21 16:33N 38°08' E 013°40'2 1.6
2014-Oct-21 15:29N 38°08' E 013°37'1 1.3
2014-Oct-21 14:33N 38°09' E 013°36'2 1.9
2014-Oct-21 13:33N 38°09' E 013°34'2 1.9
2014-Oct-21 12:33N 38°09' E 013°31'8 7.6
2014-Oct-21 11:33N 38°08' E 013°22'0 0.0
2014-Oct-21 10:31N 38°08' E 013°22'0 0.0
2014-Oct-21 09:31N 38°08' E 013°22'0 0.0
2014-Oct-21 08:31N 38°08' E 013°22'0 0.0
2014-Oct-21 07:31N 38°08' E 013°22'0 0.0
2014-Oct-21 06:31N 38°08' E 013°22'1 1.3
2014-Oct-21 05:33N 38°08' E 013°23'5 5.3
2014-Oct-21 04:33N 38°13' E 013°24'6 6.0
2014-Oct-21 03:33N 38°18' E 013°19'7 6.7
2014-Oct-21 02:33N 38°17' E 013°11'7 7.1
2014-Oct-21 01:33N 38°16' E 013°02'8 7.6
2014-Oct-21 00:33N 38°15' E 012°52'9 7.6
2014-Oct-20 23:26N 38°14' E 012°42'7 7.4
2014-Oct-20 22:32N 38°13' E 012°33'106 2.8
2014-Oct-19 08:14N 36°40' E 013°37'3 4.0
2014-Oct-19 07:33N 36°40' E 013°41'20 4.0
2014-Oct-19 02:27N 36°27' E 014°00'13 4.5
2014-Oct-18 23:33N 36°19' E 014°13'4 4.3
2014-Oct-18 22:33N 36°16' E 014°17'4 4.3
2014-Oct-18 21:33N 36°13' E 014°20'5 4.3
2014-Oct-18 20:26N 36°09' E 014°25'3 3.6
2014-Oct-18 19:32N 36°07' E 014°28'2 2.5
2014-Oct-18 18:33N 36°05' E 014°30'2 1.9
2014-Oct-18 17:32N 36°03' E 014°31'7 6.7
2014-Oct-18 16:33N 35°57' E 014°33'4 1.2
2014-Oct-18 13:12N 35°54' E 014°31'0 0.0
2014-Oct-18 12:18N 35°54' E 014°31'0 0.0
2014-Oct-18 09:30N 35°54' E 014°31'0 0.0
2014-Oct-18 05:33N 35°54' E 014°31'6 5.7
2014-Oct-18 04:33N 35°57' E 014°36'5 5.5
2014-Oct-18 03:33N 36°01' E 014°41'5 4.3
2014-Oct-18 02:30N 36°04' E 014°45'5 5.0
2014-Oct-18 01:30N 36°07' E 014°50'4 3.9
2014-Oct-18 00:33N 36°09' E 014°54'4 3.5
2014-Oct-17 23:29N 36°11' E 014°58'3 3.4
2014-Oct-17 22:33N 36°13' E 015°01'3 3.5
2014-Oct-17 21:33N 36°15' E 015°05'42 0.9
2014-Oct-15 21:09N 36°42' E 014°26'711.6
2014-Oct-15 20:33N 36°46' E 014°19'1212.1
2014-Oct-15 19:33N 36°53' E 014°06'1212.3
2014-Oct-15 18:33N 36°60' E 013°53'19 1.5
2014-Oct-15 05:31N 36°60' E 013°29'68 1.8
2014-Oct-13 16:23N 38°08' E 013°22'0 0.0
2014-Oct-13 15:32N 38°08' E 013°22'0 0.0
2014-Oct-13 14:32N 38°08' E 013°22'0 0.0
2014-Oct-13 13:31N 38°08' E 013°22'0 0.0
2014-Oct-13 12:31N 38°08' E 013°22'0 0.0
2014-Oct-13 11:31N 38°08' E 013°22'0 0.0
2014-Oct-13 10:31N 38°08' E 013°22'0 0.0
2014-Oct-13 09:31N 38°08' E 013°22'0 0.0
2014-Oct-13 08:31N 38°08' E 013°22'0 0.0
2014-Oct-13 07:31N 38°08' E 013°22'0 0.0
2014-Oct-13 06:31N 38°08' E 013°22'1 1.1
2014-Oct-13 05:33N 38°07' E 013°23'6 5.5
2014-Oct-13 04:33N 38°11' E 013°29'6 6.2
2014-Oct-13 03:33N 38°14' E 013°35'7 7.0
2014-Oct-13 02:33N 38°16' E 013°44'7 7.1
2014-Oct-13 01:33N 38°18' E 013°53'6 5.9
2014-Oct-13 00:33N 38°19' E 014°00'4 4.4
2014-Oct-12 23:33N 38°19' E 014°06'5 4.6
2014-Oct-12 22:32N 38°20' E 014°11'14 4.3
2014-Oct-12 19:13N 38°25' E 014°28'2 3.0
2014-Oct-12 18:33N 38°26' E 014°30'  

Dump ship's entire track history